LIBRLIBG

Guest
Details From LIBR - BRINDISI/Casale
To LIBG - GROTTAGLIE
Flight Number -
Tags generated
Created
Modified
Stats Distance 31 nm / 58 km
Max Altitude 900 ft / 274 m
Waypoints 3
Social Downloads 0
Likes 0
Share VATSIM

Download

Looking for another format? Having issues loading an existing format? Contact us
Advertisement - Login to hide

Notes

Basic altitude profile: - Ascent Rate: 2500ft/min - Ascent Speed: 250kts - Cruise Altitude: 35000ft - Cruise Speed: 420kts - Descent Rate: 1500ft/min - Descent Speed: 250kts Options: - Use NATs: yes - Use PACOTS: yes - Use low airways: yes - Use high airways: yes

Route

LIBR GRTNB LIBG

ID Type Via Altitude Latitude Longitude Leg Dist Tot Dist Heading (true) Name
O LIBR APT - 0 ft / 0 m 40.66082˚ 17.94267˚ - 0 nm - BRINDISI/Casale
GRTNB FIX - 900 ft / 274 m 40.44597˚ 17.42214˚ 27 nm 27 nm 242° / 241° -
O LIBG APT - 0 ft / 0 m 40.51751˚ 17.40321˚ 4 nm 31 nm 349° / 349° GROTTAGLIE

Altitude Profile

Advertisement - Login to hide

LIBR

Details ICAO LIBR (BDS)
Name BRINDISI/Casale
Region Italy
Timezone Europe/Rome (UTC+1.0)
Stats Elevation 47 ft / 14 m (AMSL)
Location 40.660824° 17.942673°
Runways 2
Magnetic Variation 3.890° E

METAR

LIBR 161515Z 34004KT 9999 FEW020 SCT040 14/10 Q1008 NOSIG

Decode

TAF

TAF LIBR 161100Z 1612/1712 26008KT 9999 SCT040= TAF COR LIRF 161144Z 1612/1718 25017KT 9999 SCT030 BECMG 1616/1618 31010KT TEMPO 1616/1621 RA BECMG 1622/1624 01012KT

Decode

Departure Runways

ID Width Length Bearing (true) Bearing (mag) Surface Threshold Offset Overrun Length
13 148 ft / 45 m 9,398 ft / 2,865 m 136.56° 132.67° Asphalt 0 ft / 0 m 689 ft / 210 m
23 148 ft / 45 m 6,129 ft / 1,868 m 232.52° 228.63° Asphalt 230 ft / 70 m 0 ft / 0 m
31 148 ft / 45 m 9,398 ft / 2,865 m 316.58° 312.69° Asphalt 0 ft / 0 m 387 ft / 118 m
5 148 ft / 45 m 6,129 ft / 1,868 m 52.51° 48.62° Asphalt 0 ft / 0 m 0 ft / 0 m

LIBG

Details ICAO LIBG (TAR)
Name GROTTAGLIE
Region Italy
Timezone Europe/Rome (UTC+1.0)
Stats Elevation 215 ft / 66 m (AMSL)
Location 40.517513° 17.403211°
Runways 1
Magnetic Variation 3.794° E

METAR

LIBG 161450Z VRB02KT 9999 FEW030 13/11 Q1006

Decode

TAF

Not found

Destination Runways

ID Width Length Bearing (true) Bearing (mag) Surface Threshold Offset Overrun Length
17 148 ft / 45 m 10,509 ft / 3,203 m 168.69° 164.90° Asphalt 1,378 ft / 420 m 0 ft / 0 m
35 148 ft / 45 m 10,509 ft / 3,203 m 348.69° 344.90° Asphalt 1,247 ft / 380 m 0 ft / 0 m

Approach Navaids

Runway Type Ident Frequency Range Bearing (true) Bearing (mag) Slope Elevation
35 Localiser ITGT 108.35 MHz 20 nm / 37 km 348.72° 344.93° - 215 ft / 66 m (AMSL)
35 Glidescope ITGT 108.35 MHz 10 nm / 19 km 348.72° 344.93° 3.00° 215 ft / 66 m (AMSL)
35 DME ITGT 108.35 MHz 25 nm / 46 km - - - 215 ft / 66 m (AMSL)

Popular Alternatives